createdAt,value
2018-02-10T00:01:09.540Z,13.90
2018-02-10T00:03:35.976Z,13.03
2018-02-10T00:06:02.392Z,12.67
2018-02-10T00:08:28.914Z,12.03
2018-02-10T00:10:55.396Z,9.30
2018-02-10T00:13:21.824Z,11.10
2018-02-10T00:15:48.340Z,8.57
2018-02-10T00:18:14.870Z,7.90
2018-02-10T00:20:41.287Z,11.07
2018-02-10T00:23:07.692Z,11.03
2018-02-10T00:25:34.127Z,7.13
2018-02-10T00:28:00.500Z,10.57
2018-02-10T00:30:28.203Z,10.47
2018-02-10T00:32:54.800Z,8.70
2018-02-10T00:35:21.321Z,12.70
2018-02-10T00:37:47.862Z,14.07
2018-02-10T00:40:14.595Z,13.93
2018-02-10T00:42:41.006Z,11.57
2018-02-10T00:45:07.428Z,8.80
2018-02-10T00:47:35.109Z,13.13
2018-02-10T00:50:01.625Z,9.70
2018-02-10T00:52:28.255Z,13.27
2018-02-10T00:54:54.838Z,10.83
2018-02-10T00:57:21.213Z,11.80
2018-02-10T00:59:47.696Z,10.17
2018-02-10T01:02:14.057Z,10.50
2018-02-10T01:04:40.556Z,11.50
2018-02-10T01:07:07.079Z,9.33
2018-02-10T01:09:33.465Z,10.80
2018-02-10T01:12:00.468Z,8.13
2018-02-10T01:14:26.984Z,12.00
2018-02-10T01:16:53.491Z,11.77
2018-02-10T01:19:19.877Z,10.83
2018-02-10T01:21:46.368Z,11.57
2018-02-10T01:24:12.729Z,10.23
2018-02-10T01:26:39.129Z,10.07
2018-02-10T01:29:05.723Z,11.60
2018-02-10T01:31:32.247Z,10.13
2018-02-10T01:33:58.723Z,15.20
2018-02-10T01:36:25.595Z,11.90
2018-02-10T01:38:53.010Z,11.47
2018-02-10T01:41:19.419Z,12.67
2018-02-10T01:43:45.848Z,11.70
2018-02-10T01:46:12.245Z,8.87
2018-02-10T01:48:38.868Z,8.03
2018-02-10T01:51:05.411Z,9.57
2018-02-10T01:53:32.587Z,12.30
2018-02-10T01:55:58.958Z,8.77
2018-02-10T01:58:25.367Z,11.17
2018-02-10T02:00:51.904Z,9.83
2018-02-10T02:03:18.319Z,9.70
2018-02-10T02:05:44.759Z,8.47
2018-02-10T02:08:11.178Z,10.47
2018-02-10T02:10:37.972Z,11.93
2018-02-10T02:13:04.410Z,10.77
2018-02-10T02:15:30.840Z,11.07
2018-02-10T02:17:57.292Z,10.53
2018-02-10T02:20:23.846Z,10.60
2018-02-10T02:22:50.320Z,9.40
2018-02-10T02:25:16.780Z,9.37
2018-02-10T02:27:43.307Z,8.83
2018-02-10T02:30:09.858Z,8.53
2018-02-10T02:32:36.247Z,10.03
2018-02-10T02:35:02.728Z,9.40
2018-02-10T02:37:30.100Z,13.73
2018-02-10T02:39:56.630Z,11.00
2018-02-10T02:42:23.054Z,10.57
2018-02-10T02:44:49.440Z,8.90
2018-02-10T02:47:15.778Z,11.00
2018-02-10T02:49:42.209Z,8.73
2018-02-10T02:52:08.660Z,10.47
2018-02-10T02:54:35.037Z,10.47
2018-02-10T02:57:01.443Z,10.03
2018-02-10T02:59:27.995Z,12.40
2018-02-10T03:01:54.509Z,10.77
2018-02-10T03:04:20.958Z,9.53
2018-02-10T03:06:47.356Z,11.70
2018-02-10T03:09:13.722Z,10.43
2018-02-10T03:11:40.359Z,11.17
2018-02-10T03:14:06.748Z,8.63
2018-02-10T03:16:33.194Z,10.00
2018-02-10T03:18:59.633Z,9.63
2018-02-10T03:21:26.096Z,11.27
2018-02-10T03:23:52.511Z,7.60
2018-02-10T03:26:19.317Z,11.87
2018-02-10T03:28:45.722Z,9.90
2018-02-10T03:31:12.194Z,13.07
2018-02-10T03:33:38.628Z,17.67
2018-02-10T03:36:05.053Z,11.40
2018-02-10T03:38:31.421Z,11.73
2018-02-10T03:40:57.941Z,10.87
2018-02-10T03:43:24.347Z,12.07
2018-02-10T03:45:50.801Z,13.90
2018-02-10T03:48:17.197Z,13.43
2018-02-10T03:50:43.660Z,11.50
2018-02-10T03:53:10.010Z,13.40
2018-02-10T03:55:36.454Z,13.47
2018-02-10T03:58:02.827Z,10.90
2018-02-10T04:00:29.274Z,13.07
2018-02-10T04:02:55.699Z,10.93
2018-02-10T04:05:22.076Z,11.20
2018-02-10T04:07:48.437Z,13.23
2018-02-10T04:10:15.058Z,16.37
2018-02-10T04:12:41.399Z,12.77
2018-02-10T04:15:08.684Z,8.53
2018-02-10T04:17:35.084Z,9.90
2018-02-10T04:20:01.502Z,12.40
2018-02-10T04:22:28.911Z,9.67
2018-02-10T04:24:55.398Z,10.60
2018-02-10T04:27:21.760Z,8.93
2018-02-10T04:29:48.181Z,9.33
2018-02-10T04:32:14.716Z,8.83
2018-02-10T04:34:41.057Z,9.73
2018-02-10T04:37:07.410Z,9.00
2018-02-10T04:39:33.852Z,8.27
2018-02-10T04:42:00.318Z,10.77
2018-02-10T04:44:26.696Z,10.93
2018-02-10T04:46:53.125Z,11.00
2018-02-10T04:49:20.185Z,10.43
2018-02-10T04:51:47.076Z,10.07
2018-02-10T04:54:14.620Z,11.43
2018-02-10T04:56:41.489Z,10.93
2018-02-10T04:59:08.540Z,7.63
2018-02-10T05:01:35.250Z,11.20
2018-02-10T05:04:01.772Z,11.03
2018-02-10T05:06:28.207Z,10.83
2018-02-10T05:08:54.668Z,8.60
2018-02-10T05:11:21.181Z,11.27
2018-02-10T05:13:47.680Z,10.10
2018-02-10T05:16:14.125Z,9.77
2018-02-10T05:18:40.703Z,9.83
2018-02-10T05:21:07.579Z,8.60
2018-02-10T05:23:34.160Z,11.13
2018-02-10T05:26:00.716Z,9.37
2018-02-10T05:28:27.165Z,9.57
2018-02-10T05:30:55.767Z,7.17
2018-02-10T05:33:22.128Z,10.20
2018-02-10T05:35:48.484Z,9.60
2018-02-10T05:38:14.891Z,7.30
2018-02-10T05:40:41.510Z,9.10
2018-02-10T05:43:08.089Z,9.50
2018-02-10T05:45:34.523Z,7.67
2018-02-10T05:48:00.924Z,9.33
2018-02-10T05:50:27.381Z,8.40
2018-02-10T05:52:53.824Z,10.33
2018-02-10T05:55:20.221Z,7.97
2018-02-10T05:57:46.601Z,13.30
2018-02-10T06:00:13.069Z,13.07
2018-02-10T06:02:40.407Z,12.70
2018-02-10T06:05:06.867Z,13.40
2018-02-10T06:07:33.310Z,23.30
2018-02-10T06:09:59.825Z,76.67
2018-02-10T06:12:26.248Z,66.60
2018-02-10T06:14:52.732Z,32.23
2018-02-10T06:17:19.497Z,33.73
2018-02-10T06:19:46.122Z,115.27
2018-02-10T06:22:12.826Z,69.83
2018-02-10T06:24:39.879Z,31.83
2018-02-10T06:27:06.748Z,29.53
2018-02-10T06:29:33.453Z,27.60
2018-02-10T06:32:00.292Z,17.80
2018-02-10T06:34:27.304Z,10.20
2018-02-10T06:36:54.106Z,13.10
2018-02-10T06:39:20.583Z,9.57
2018-02-10T06:41:47.172Z,10.43
2018-02-10T06:44:13.788Z,10.73
2018-02-10T06:46:41.578Z,12.37
2018-02-10T06:49:08.129Z,12.73
2018-02-10T06:51:35.000Z,11.47
2018-02-10T06:54:01.734Z,13.33
2018-02-10T06:56:28.149Z,12.57
2018-02-10T06:58:55.158Z,14.77
2018-02-10T07:01:21.802Z,13.83
2018-02-10T07:03:48.226Z,14.93
2018-02-10T07:06:14.743Z,13.47
2018-02-10T07:08:41.108Z,17.23
2018-02-10T07:11:07.874Z,16.23
2018-02-10T07:13:34.333Z,14.67
2018-02-10T07:16:00.796Z,14.00
2018-02-10T07:18:27.208Z,17.10
2018-02-10T07:20:53.763Z,17.63
2018-02-10T07:23:20.235Z,15.33
2018-02-10T07:25:46.724Z,12.83
2018-02-10T07:28:13.198Z,12.67
2018-02-10T07:30:39.803Z,15.27
2018-02-10T07:33:06.321Z,16.57
2018-02-10T07:35:32.814Z,16.27
2018-02-10T07:37:59.398Z,15.43
2018-02-10T07:40:26.043Z,17.63
2018-02-10T07:42:52.774Z,20.57
2018-02-10T07:45:19.362Z,16.40
2018-02-10T07:47:45.928Z,17.07
2018-02-10T07:50:12.626Z,19.47
2018-02-10T07:52:39.134Z,19.30
2018-02-10T07:55:05.695Z,20.53
2018-02-10T07:57:32.194Z,17.30
2018-02-10T07:59:58.646Z,22.67
2018-02-10T08:02:25.342Z,19.87
2018-02-10T08:04:51.799Z,18.23
2018-02-10T08:07:18.256Z,22.47
2018-02-10T08:09:44.725Z,21.10
2018-02-10T08:12:11.312Z,20.87
2018-02-10T08:14:38.065Z,21.57
2018-02-10T08:17:04.599Z,20.00
2018-02-10T08:19:31.068Z,24.37
2018-02-10T08:21:57.544Z,22.23
2018-02-10T08:24:24.045Z,22.87
2018-02-10T08:26:50.626Z,21.37
2018-02-10T08:29:17.073Z,22.10
2018-02-10T08:31:43.594Z,22.97
2018-02-10T08:34:10.109Z,24.40
2018-02-10T08:36:36.783Z,23.00
2018-02-10T08:39:03.537Z,19.57
2018-02-10T08:41:30.047Z,23.97
2018-02-10T08:43:56.620Z,20.33
2018-02-10T08:46:23.098Z,21.37
2018-02-10T08:48:49.614Z,21.23
2018-02-10T08:51:16.168Z,22.93
2018-02-10T08:53:42.627Z,16.00
2018-02-10T08:56:09.197Z,18.20
2018-02-10T08:58:35.666Z,15.23
2018-02-10T09:01:02.365Z,21.40
2018-02-10T09:03:29.050Z,14.60
2018-02-10T09:05:55.987Z,18.37
2018-02-10T09:08:22.521Z,16.63
2018-02-10T09:10:49.239Z,14.10
2018-02-10T09:13:15.850Z,18.07
2018-02-10T09:15:42.405Z,16.73
2018-02-10T09:18:08.905Z,12.17
2018-02-10T09:20:35.370Z,16.27
2018-02-10T09:23:01.861Z,20.87
2018-02-10T09:25:28.345Z,18.43
2018-02-10T09:27:54.809Z,17.27
2018-02-10T09:30:21.246Z,18.47
2018-02-10T09:32:47.903Z,16.80
2018-02-10T09:35:14.554Z,18.80
2018-02-10T09:37:41.070Z,16.87
2018-02-10T09:40:07.458Z,14.63
2018-02-10T09:42:33.986Z,16.33
2018-02-10T09:45:00.412Z,13.07
2018-02-10T09:47:27.310Z,14.07
2018-02-10T09:49:53.852Z,13.17
2018-02-10T09:52:20.328Z,12.80
2018-02-10T09:54:46.748Z,14.10
2018-02-10T09:57:13.182Z,11.80
2018-02-10T09:59:39.658Z,13.57
2018-02-10T10:02:06.416Z,15.37
2018-02-10T10:04:33.661Z,21.33
2018-02-10T10:07:01.017Z,12.37
2018-02-10T10:09:27.792Z,13.43
2018-02-10T10:11:54.428Z,12.30
2018-02-10T10:14:20.831Z,12.33
2018-02-10T10:16:48.207Z,12.30
2018-02-10T10:19:14.785Z,13.63
2018-02-10T10:21:41.329Z,15.57
2018-02-10T10:24:07.851Z,13.27
2018-02-10T10:26:34.364Z,13.67
2018-02-10T10:29:00.810Z,15.30
2018-02-10T10:31:27.321Z,13.80
2018-02-10T10:33:53.814Z,13.77
2018-02-10T10:36:20.240Z,13.10
2018-02-10T10:38:46.734Z,19.43
2018-02-10T10:41:13.286Z,15.90
2018-02-10T10:43:39.762Z,12.77
2018-02-10T10:46:06.293Z,17.70
2018-02-10T10:48:32.783Z,20.63
2018-02-10T10:50:59.393Z,16.77
2018-02-10T10:53:26.246Z,33.73
2018-02-10T10:55:52.775Z,36.83
2018-02-10T10:58:19.367Z,19.50
2018-02-10T11:00:45.995Z,16.97
2018-02-10T11:03:12.478Z,22.33
2018-02-10T11:05:39.084Z,21.90
2018-02-10T11:08:06.257Z,17.90
2018-02-10T11:10:32.868Z,20.23
2018-02-10T11:12:59.516Z,24.73
2018-02-10T11:15:26.125Z,16.83
2018-02-10T11:17:52.895Z,13.07
2018-02-10T11:20:19.504Z,27.33
2018-02-10T11:22:46.180Z,17.90
2018-02-10T11:25:12.720Z,14.07
2018-02-10T11:27:39.236Z,12.63
2018-02-10T11:30:06.110Z,8.80
2018-02-10T11:32:32.795Z,13.80
2018-02-10T11:34:59.514Z,11.47
2018-02-10T11:37:26.234Z,11.60
2018-02-10T11:39:52.643Z,11.23
2018-02-10T11:42:19.461Z,10.30
2018-02-10T11:44:46.577Z,9.97
2018-02-10T11:47:13.189Z,8.83
2018-02-10T11:49:39.554Z,11.30
2018-02-10T11:52:06.046Z,10.67
2018-02-10T11:54:32.573Z,10.90
2018-02-10T11:56:59.151Z,13.70
2018-02-10T11:59:25.982Z,11.43
2018-02-10T12:01:52.908Z,11.37
2018-02-10T12:04:19.674Z,10.57
2018-02-10T12:06:46.256Z,13.53
2018-02-10T12:09:12.820Z,10.97
2018-02-10T12:11:39.287Z,8.80
2018-02-10T12:14:05.788Z,13.83
2018-02-10T12:16:32.517Z,10.37
2018-02-10T12:18:59.076Z,8.17
2018-02-10T12:21:25.597Z,8.90
2018-02-10T12:23:52.280Z,9.73
2018-02-10T12:26:18.887Z,8.97
2018-02-10T12:28:45.480Z,7.00
2018-02-10T12:31:11.980Z,7.23
2018-02-10T12:33:38.537Z,6.77
2018-02-10T12:36:05.095Z,6.70
2018-02-10T12:38:31.892Z,8.00
2018-02-10T12:40:58.403Z,7.10
2018-02-10T12:43:25.063Z,5.47
2018-02-10T12:45:51.738Z,6.70
2018-02-10T12:48:24.503Z,5.30
2018-02-10T12:50:51.047Z,7.20
2018-02-10T12:53:17.469Z,6.90
2018-02-10T12:55:44.182Z,7.07
2018-02-10T12:58:11.235Z,6.50
2018-02-10T13:00:37.832Z,6.20
2018-02-10T13:03:04.508Z,5.90
2018-02-10T13:05:31.185Z,5.80
2018-02-10T13:07:57.782Z,6.60
2018-02-10T13:10:24.556Z,5.60
2018-02-10T13:12:51.095Z,5.63
2018-02-10T13:15:17.492Z,5.43
2018-02-10T13:17:44.008Z,5.17
2018-02-10T13:20:10.701Z,5.67
2018-02-10T13:22:37.220Z,6.37
2018-02-10T13:25:03.783Z,6.83
2018-02-10T13:27:31.199Z,5.63
2018-02-10T13:29:57.675Z,8.37
2018-02-10T13:32:24.265Z,7.23
2018-02-10T13:34:50.923Z,6.53
2018-02-10T13:37:17.572Z,5.17
2018-02-10T13:39:44.189Z,5.90
2018-02-10T13:42:12.522Z,6.43
2018-02-10T13:44:38.994Z,4.73
2018-02-10T13:47:05.475Z,5.43
2018-02-10T13:49:32.959Z,5.67
2018-02-10T13:51:59.587Z,5.73
2018-02-10T13:54:26.305Z,5.07
2018-02-10T13:56:52.798Z,4.63
2018-02-10T13:59:19.916Z,5.90
2018-02-10T14:01:46.585Z,11.37
2018-02-10T14:04:13.253Z,13.97
2018-02-10T14:06:39.815Z,17.50
2018-02-10T14:09:06.375Z,15.50
2018-02-10T14:11:33.356Z,21.57
2018-02-10T14:14:01.754Z,19.67
2018-02-10T14:16:32.268Z,16.57
2018-02-10T14:19:00.690Z,15.13
2018-02-10T14:21:29.347Z,17.93
2018-02-10T14:23:57.146Z,14.73
2018-02-10T14:26:25.733Z,17.07
2018-02-10T14:28:53.042Z,17.10
2018-02-10T14:31:21.166Z,14.83
2018-02-10T14:33:49.433Z,15.40
2018-02-10T14:36:16.428Z,15.23
2018-02-10T14:38:43.271Z,18.73
2018-02-10T14:41:10.148Z,16.67
2018-02-10T14:43:37.516Z,19.20
2018-02-10T14:46:05.396Z,18.20
2018-02-10T14:48:32.545Z,22.50
2018-02-10T14:50:59.755Z,16.70
2018-02-10T14:53:26.962Z,18.70
2018-02-10T14:55:53.878Z,21.23
2018-02-10T14:58:20.950Z,21.30
2018-02-10T15:00:47.957Z,18.90
2018-02-10T15:03:14.689Z,22.87
2018-02-10T15:05:41.409Z,21.17
2018-02-10T15:08:09.070Z,19.73
2018-02-10T15:10:37.701Z,26.63
2018-02-10T15:13:07.123Z,20.97
2018-02-10T15:15:34.181Z,23.10
2018-02-10T15:18:01.548Z,19.27
2018-02-10T15:20:29.505Z,22.13
2018-02-10T15:22:56.422Z,19.40
2018-02-10T15:25:23.207Z,20.10
2018-02-10T15:27:49.784Z,20.57
2018-02-10T15:30:28.559Z,20.00
2018-02-10T15:33:07.440Z,20.67
2018-02-10T15:35:33.992Z,20.20
2018-02-10T15:38:00.859Z,20.07
2018-02-10T15:40:27.300Z,17.83
2018-02-10T15:42:54.166Z,18.27
2018-02-10T15:45:20.747Z,22.37
2018-02-10T15:47:47.207Z,20.27
2018-02-10T15:50:13.739Z,18.47
2018-02-10T15:52:41.318Z,18.70
2018-02-10T15:55:08.770Z,16.60
2018-02-10T15:57:35.803Z,16.97
2018-02-10T16:00:02.465Z,19.33
2018-02-10T16:02:29.502Z,18.37
2018-02-10T16:04:56.203Z,17.73
2018-02-10T16:07:23.124Z,16.60
2018-02-10T16:09:49.765Z,17.73
2018-02-10T16:12:17.451Z,15.30
2018-02-10T16:14:44.253Z,19.47
2018-02-10T16:17:10.828Z,17.33
2018-02-10T16:19:37.375Z,18.33
2018-02-10T16:22:04.459Z,17.77
2018-02-10T16:24:31.153Z,15.20
2018-02-10T16:26:58.037Z,13.50
2018-02-10T16:29:25.021Z,16.83
2018-02-10T16:31:52.607Z,18.03
2018-02-10T16:34:19.428Z,15.20
2018-02-10T16:36:45.941Z,16.80
2018-02-10T16:39:12.455Z,13.33
2018-02-10T16:41:39.126Z,14.77
2018-02-10T16:44:05.767Z,16.10
2018-02-10T16:46:32.515Z,12.20
2018-02-10T16:48:59.204Z,14.40
2018-02-10T16:51:25.954Z,12.43
2018-02-10T16:53:52.588Z,12.70
2018-02-10T16:56:19.222Z,12.33
2018-02-10T16:58:45.888Z,11.77
2018-02-10T17:01:12.739Z,13.60
2018-02-10T17:03:39.930Z,13.93
2018-02-10T17:06:06.841Z,11.17
2018-02-10T17:08:33.750Z,13.53
2018-02-10T17:11:00.803Z,9.50
2018-02-10T17:13:27.673Z,11.00
2018-02-10T17:15:55.353Z,8.30
2018-02-10T17:18:23.167Z,9.20
2018-02-10T17:20:50.496Z,9.77
2018-02-10T17:23:17.756Z,11.93
2018-02-10T17:25:46.498Z,11.63
2018-02-10T17:28:13.746Z,9.63
2018-02-10T17:30:40.717Z,8.17
2018-02-10T17:33:08.035Z,7.83
2018-02-10T17:35:35.201Z,9.60
2018-02-10T17:38:01.933Z,9.30
2018-02-10T17:40:28.701Z,7.90
2018-02-10T17:42:56.517Z,6.07
2018-02-10T17:45:23.389Z,10.17
2018-02-10T17:47:50.357Z,8.40
2018-02-10T17:50:16.928Z,6.80
2018-02-10T17:52:43.669Z,8.77
2018-02-10T17:55:10.350Z,8.87
2018-02-10T17:57:36.942Z,9.50
2018-02-10T18:00:03.962Z,9.00
2018-02-10T18:02:31.789Z,8.80
2018-02-10T18:04:58.675Z,10.10
2018-02-10T18:07:25.568Z,11.27
2018-02-10T18:09:52.174Z,8.67
2018-02-10T18:12:19.327Z,8.67
2018-02-10T18:14:46.090Z,10.17
2018-02-10T18:17:13.210Z,3.30
2018-02-10T18:19:39.915Z,1.97
2018-02-10T18:22:06.738Z,4.40
2018-02-10T18:24:33.688Z,6.40
2018-02-10T18:27:01.742Z,6.53
2018-02-10T18:29:28.971Z,9.43
2018-02-10T18:31:55.655Z,7.33
2018-02-10T18:34:22.429Z,8.77
2018-02-10T18:36:49.062Z,8.30
2018-02-10T18:39:15.659Z,9.77
2018-02-10T18:41:42.907Z,10.70
2018-02-10T18:44:09.449Z,7.63
2018-02-10T18:46:36.157Z,9.20
2018-02-10T18:49:03.066Z,5.30
2018-02-10T18:51:29.665Z,4.37
2018-02-10T18:53:56.672Z,7.23
2018-02-10T18:56:23.460Z,4.20
2018-02-10T18:58:50.356Z,6.13
2018-02-10T19:01:17.551Z,6.90
2018-02-10T19:03:44.178Z,6.90
2018-02-10T19:06:11.437Z,7.37
2018-02-10T19:08:38.325Z,8.40
2018-02-10T19:11:04.863Z,7.30
2018-02-10T19:13:31.689Z,1.70
2018-02-10T19:15:58.681Z,1.47
2018-02-10T19:18:25.497Z,0.90
2018-02-10T19:20:51.989Z,5.13
2018-02-10T19:23:19.324Z,2.30
2018-02-10T19:25:45.881Z,1.23
2018-02-10T19:28:12.477Z,2.60
2018-02-10T19:30:39.135Z,3.80
2018-02-10T19:33:06.336Z,0.87
2018-02-10T19:35:32.910Z,0.87
2018-02-10T19:37:59.642Z,0.60
2018-02-10T19:40:26.648Z,1.27
2018-02-10T19:42:53.358Z,0.80
2018-02-10T19:45:19.976Z,1.10
2018-02-10T19:47:46.651Z,0.80
2018-02-10T19:50:14.202Z,0.70
2018-02-10T19:52:40.800Z,1.17
2018-02-10T19:55:07.587Z,0.73
2018-02-10T19:57:34.800Z,0.57
2018-02-10T20:00:01.604Z,0.60
2018-02-10T20:02:28.274Z,0.90
2018-02-10T20:04:54.780Z,1.23
2018-02-10T20:07:21.758Z,2.53
2018-02-10T20:09:48.474Z,0.60
2018-02-10T20:12:14.971Z,0.83
2018-02-10T20:14:41.775Z,0.70
2018-02-10T20:17:08.383Z,0.50
2018-02-10T20:19:34.876Z,0.53
2018-02-10T20:22:02.060Z,0.53
2018-02-10T20:24:29.098Z,0.60
2018-02-10T20:26:55.926Z,0.53
2018-02-10T20:29:22.599Z,0.50
2018-02-10T20:31:49.292Z,0.50
2018-02-10T20:34:16.271Z,0.50
2018-02-10T20:36:43.537Z,0.93
2018-02-10T20:39:10.289Z,1.60
2018-02-10T20:41:38.270Z,0.67
2018-02-10T20:44:04.978Z,0.50
2018-02-10T20:46:31.496Z,0.70
2018-02-10T20:48:58.015Z,0.80
2018-02-10T20:51:24.839Z,1.63
2018-02-10T20:53:51.688Z,3.20
2018-02-10T20:56:18.361Z,4.47
2018-02-10T20:58:44.988Z,5.63
2018-02-10T21:01:11.554Z,7.50
2018-02-10T21:03:38.325Z,6.50
2018-02-10T21:06:05.045Z,5.70
2018-02-10T21:08:31.639Z,6.47
2018-02-10T21:10:58.189Z,6.23
2018-02-10T21:13:24.900Z,6.20
2018-02-10T21:15:51.710Z,11.80
2018-02-10T21:18:18.241Z,7.90
2018-02-10T21:20:44.718Z,3.93
2018-02-10T21:23:11.179Z,2.63
2018-02-10T21:25:38.700Z,3.57
2018-02-10T21:28:05.245Z,5.90
2018-02-10T21:30:31.815Z,4.67
2018-02-10T21:32:58.305Z,4.43
2018-02-10T21:35:24.900Z,4.63
2018-02-10T21:37:51.426Z,4.63
2018-02-10T21:40:17.927Z,4.67
2018-02-10T21:42:44.539Z,3.97
2018-02-10T21:45:10.979Z,6.07
2018-02-10T21:47:37.446Z,5.40
2018-02-10T21:50:03.975Z,4.90
2018-02-10T21:52:30.506Z,4.53
2018-02-10T21:54:56.957Z,3.77
2018-02-10T21:57:23.455Z,2.80
2018-02-10T21:59:49.912Z,3.07
2018-02-10T22:02:16.485Z,4.20
2018-02-10T22:04:44.015Z,3.03
2018-02-10T22:07:10.436Z,3.90
2018-02-10T22:09:36.818Z,4.07
2018-02-10T22:12:03.407Z,2.57
2018-02-10T22:14:29.847Z,4.20
2018-02-10T22:16:56.884Z,4.17
2018-02-10T22:19:23.819Z,2.97
2018-02-10T22:21:50.376Z,2.53
2018-02-10T22:24:16.901Z,2.67
2018-02-10T22:26:44.354Z,3.53
2018-02-10T22:29:11.098Z,2.33
2018-02-10T22:31:37.667Z,3.53
2018-02-10T22:34:04.405Z,1.37
2018-02-10T22:36:31.099Z,1.93
2018-02-10T22:38:57.546Z,2.03
2018-02-10T22:41:24.062Z,0.63
2018-02-10T22:43:50.559Z,0.40
2018-02-10T22:46:17.092Z,1.43
2018-02-10T22:48:43.595Z,0.93
2018-02-10T22:51:10.010Z,2.70
2018-02-10T22:53:36.510Z,1.07
2018-02-10T22:56:03.850Z,1.17
2018-02-10T22:58:30.408Z,1.47
2018-02-10T23:01:02.972Z,0.50
2018-02-10T23:03:29.448Z,0.40
2018-02-10T23:05:55.853Z,0.63
2018-02-10T23:08:22.240Z,0.40
2018-02-10T23:10:48.734Z,0.40
2018-02-10T23:13:15.206Z,0.50
2018-02-10T23:15:41.639Z,1.20
2018-02-10T23:18:08.086Z,1.73
2018-02-10T23:20:34.482Z,1.90
2018-02-10T23:23:01.036Z,1.73
2018-02-10T23:25:27.561Z,2.90
2018-02-10T23:27:54.021Z,2.97
2018-02-10T23:30:20.409Z,2.23
2018-02-10T23:32:46.910Z,1.53
2018-02-10T23:35:13.415Z,2.07
2018-02-10T23:37:40.018Z,1.67
2018-02-10T23:40:06.494Z,1.60
2018-02-10T23:42:33.527Z,1.77
2018-02-10T23:44:59.968Z,5.13
2018-02-10T23:47:26.464Z,1.50
2018-02-10T23:49:52.900Z,1.50
2018-02-10T23:52:19.473Z,2.40
2018-02-10T23:54:46.068Z,1.70
2018-02-10T23:57:12.531Z,1.60
2018-02-10T23:59:38.939Z,2.67
